createdAt,value
2023-02-12T00:00:22.373Z,-40
2023-02-12T00:01:28.642Z,-39
2023-02-12T00:02:34.991Z,-39
2023-02-12T00:03:41.177Z,-40
2023-02-12T00:04:47.437Z,-38
2023-02-12T00:05:53.712Z,-42
2023-02-12T00:06:59.991Z,-40
2023-02-12T00:08:06.294Z,-39
2023-02-12T00:09:12.528Z,-39
2023-02-12T00:10:18.800Z,-40
2023-02-12T00:11:25.071Z,-40
2023-02-12T00:12:31.357Z,-40
2023-02-12T00:13:37.628Z,-39
2023-02-12T00:14:42.936Z,-39
2023-02-12T00:15:49.169Z,-38
2023-02-12T00:16:55.452Z,-39
2023-02-12T00:18:01.754Z,-40
2023-02-12T00:19:08.057Z,-40
2023-02-12T00:20:14.332Z,-38
2023-02-12T00:21:20.533Z,-40
2023-02-12T00:22:25.865Z,-39
2023-02-12T00:23:31.122Z,-38
2023-02-12T00:24:37.398Z,-39
2023-02-12T00:25:42.706Z,-39
2023-02-12T00:26:47.981Z,-39
2023-02-12T00:27:54.257Z,-39
2023-02-12T00:29:00.534Z,-40
2023-02-12T00:30:06.795Z,-38
2023-02-12T00:31:13.077Z,-39
2023-02-12T00:32:19.363Z,-38
2023-02-12T00:33:25.612Z,-40
2023-02-12T00:34:31.890Z,-40
2023-02-12T00:35:38.156Z,-39
2023-02-12T00:36:44.439Z,-40
2023-02-12T00:37:50.703Z,-40
2023-02-12T00:38:56.975Z,-38
2023-02-12T00:40:03.247Z,-40
2023-02-12T00:41:08.544Z,-40
2023-02-12T00:42:14.813Z,-39
2023-02-12T00:43:21.089Z,-39
2023-02-12T00:44:27.355Z,-39
2023-02-12T00:45:33.627Z,-38
2023-02-12T00:46:39.900Z,-39
2023-02-12T00:47:46.167Z,-39
2023-02-12T00:48:51.463Z,-39
2023-02-12T00:49:56.755Z,-38
2023-02-12T00:51:03.025Z,-39
2023-02-12T00:52:09.299Z,-38
2023-02-12T00:53:15.569Z,-39
2023-02-12T00:54:21.839Z,-39
2023-02-12T00:55:28.114Z,-40
2023-02-12T00:56:34.382Z,-40
2023-02-12T00:57:40.665Z,-40
2023-02-12T00:58:46.923Z,-38
2023-02-12T00:59:53.204Z,-38
2023-02-12T01:00:59.476Z,-40
2023-02-12T01:02:05.745Z,-39
2023-02-12T01:03:12.022Z,-40
2023-02-12T01:04:17.310Z,-40
2023-02-12T01:05:23.590Z,-40
2023-02-12T01:06:29.854Z,-38
2023-02-12T01:07:36.131Z,-39
2023-02-12T01:08:42.400Z,-38
2023-02-12T01:09:48.671Z,-39
2023-02-12T01:10:54.938Z,-38
2023-02-12T01:12:00.247Z,-40
2023-02-12T01:13:05.529Z,-40
2023-02-12T01:14:10.831Z,-41
2023-02-12T01:15:16.120Z,-39
2023-02-12T01:16:22.389Z,-40
2023-02-12T01:17:28.664Z,-39
2023-02-12T01:18:34.943Z,-38
2023-02-12T01:19:41.205Z,-38
2023-02-12T01:20:47.475Z,-39
2023-02-12T01:21:53.751Z,-40
2023-02-12T01:23:00.057Z,-38
2023-02-12T01:24:06.364Z,-40
2023-02-12T01:25:12.570Z,-38
2023-02-12T01:26:18.886Z,-39
2023-02-12T01:27:25.118Z,-39
2023-02-12T01:28:31.534Z,-38
2023-02-12T01:29:36.693Z,-40
2023-02-12T01:30:42.945Z,-37
2023-02-12T01:31:49.215Z,-39
2023-02-12T01:32:55.527Z,-40
2023-02-12T01:34:00.833Z,-38
2023-02-12T01:35:07.060Z,-40
2023-02-12T01:36:13.351Z,-38
2023-02-12T01:37:18.656Z,-40
2023-02-12T01:38:23.909Z,-38
2023-02-12T01:39:30.236Z,-39
2023-02-12T01:40:35.497Z,-40
2023-02-12T01:41:40.779Z,-39
2023-02-12T01:42:47.052Z,-38
2023-02-12T01:43:53.310Z,-39
2023-02-12T01:44:59.588Z,-38
2023-02-12T01:46:05.865Z,-38
2023-02-12T01:47:12.132Z,-40
2023-02-12T01:48:18.397Z,-39
2023-02-12T01:49:24.671Z,-39
2023-02-12T01:50:30.947Z,-40
2023-02-12T01:51:37.217Z,-38
2023-02-12T01:52:43.493Z,-40
2023-02-12T01:53:49.767Z,-40
2023-02-12T01:54:56.038Z,-40
2023-02-12T01:56:01.381Z,-40
2023-02-12T01:57:07.613Z,-38
2023-02-12T01:58:13.869Z,-39
2023-02-12T01:59:20.174Z,-39
2023-02-12T02:00:26.424Z,-39
2023-02-12T02:01:32.684Z,-39
2023-02-12T02:02:38.963Z,-39
2023-02-12T02:03:44.257Z,-39
2023-02-12T02:04:49.544Z,-40
2023-02-12T02:05:54.849Z,-39
2023-02-12T02:07:00.120Z,-39
2023-02-12T02:08:06.396Z,-38
2023-02-12T02:09:12.679Z,-39
2023-02-12T02:10:18.938Z,-38
2023-02-12T02:11:25.213Z,-40
2023-02-12T02:12:31.510Z,-40
2023-02-12T02:13:37.776Z,-39
2023-02-12T02:14:44.034Z,-40
2023-02-12T02:15:50.295Z,-39
2023-02-12T02:16:56.576Z,-40
2023-02-12T02:18:02.859Z,-39
2023-02-12T02:19:09.120Z,-39
2023-02-12T02:20:15.376Z,-40
2023-02-12T02:21:20.684Z,-38
2023-02-12T02:22:26.946Z,-39
2023-02-12T02:23:33.217Z,-39
2023-02-12T02:24:39.500Z,-39
2023-02-12T02:25:45.775Z,-39
2023-02-12T02:26:52.034Z,-39
2023-02-12T02:27:58.311Z,-37
2023-02-12T02:29:03.608Z,-37
2023-02-12T02:30:08.900Z,-40
2023-02-12T02:31:15.172Z,-39
2023-02-12T02:32:20.476Z,-39
2023-02-12T02:33:25.753Z,-38
2023-02-12T02:34:32.032Z,-39
2023-02-12T02:35:38.300Z,-38
2023-02-12T02:36:44.581Z,-39
2023-02-12T02:37:50.844Z,-38
2023-02-12T02:38:57.115Z,-38
2023-02-12T02:40:03.404Z,-38
2023-02-12T02:41:09.667Z,-38
2023-02-12T02:42:15.932Z,-38
2023-02-12T02:43:22.203Z,-37
2023-02-12T02:44:28.479Z,-38
2023-02-12T02:45:34.757Z,-39
2023-02-12T02:46:41.037Z,-39
2023-02-12T02:47:46.309Z,-39
2023-02-12T02:48:52.588Z,-39
2023-02-12T02:49:58.860Z,-38
2023-02-12T02:51:05.124Z,-38
2023-02-12T02:52:11.399Z,-38
2023-02-12T02:53:17.670Z,-37
2023-02-12T02:54:23.959Z,-38
2023-02-12T02:55:29.247Z,-38
2023-02-12T02:56:34.531Z,-37
2023-02-12T02:57:39.830Z,-37
2023-02-12T02:58:45.159Z,-38
2023-02-12T02:59:51.392Z,-39
2023-02-12T03:00:57.664Z,-39
2023-02-12T03:02:03.941Z,-38
2023-02-12T03:03:10.216Z,-39
2023-02-12T03:04:16.483Z,-38
2023-02-12T03:05:22.759Z,-39
2023-02-12T03:06:29.017Z,-38
2023-02-12T03:07:35.295Z,-38
2023-02-12T03:08:41.570Z,-38
2023-02-12T03:09:47.838Z,-38
2023-02-12T03:10:54.110Z,-38
2023-02-12T03:12:00.444Z,-37
2023-02-12T03:13:05.669Z,-37
2023-02-12T03:14:11.944Z,-37
2023-02-12T03:15:18.240Z,-39
2023-02-12T03:16:24.482Z,-38
2023-02-12T03:17:30.788Z,-39
2023-02-12T03:18:37.037Z,-38
2023-02-12T03:19:43.303Z,-39
2023-02-12T03:20:48.605Z,-37
2023-02-12T03:21:53.895Z,-40
2023-02-12T03:22:59.200Z,-39
2023-02-12T03:24:04.497Z,-38
2023-02-12T03:25:10.755Z,-40
2023-02-12T03:26:17.032Z,-38
2023-02-12T03:27:23.301Z,-39
2023-02-12T03:28:29.574Z,-40
2023-02-12T03:29:35.836Z,-39
2023-02-12T03:30:42.118Z,-39
2023-02-12T03:31:48.394Z,-37
2023-02-12T03:32:54.653Z,-38
2023-02-12T03:34:00.925Z,-39
2023-02-12T03:35:07.230Z,-39
2023-02-12T03:36:13.471Z,-39
2023-02-12T03:37:19.743Z,-37
2023-02-12T03:38:25.031Z,-39
2023-02-12T03:39:31.309Z,-38
2023-02-12T03:40:37.584Z,-39
2023-02-12T03:41:43.851Z,-37
2023-02-12T03:42:50.121Z,-38
2023-02-12T03:43:56.392Z,-40
2023-02-12T03:45:02.699Z,-38
2023-02-12T03:46:07.980Z,-39
2023-02-12T03:47:13.254Z,-39
2023-02-12T03:48:19.531Z,-39
2023-02-12T03:49:24.844Z,-38
2023-02-12T03:50:30.119Z,-39
2023-02-12T03:51:36.381Z,-39
2023-02-12T03:52:42.658Z,-38
2023-02-12T03:53:48.930Z,-40
2023-02-12T03:54:55.203Z,-40
2023-02-12T03:56:01.468Z,-37
2023-02-12T03:57:07.738Z,-38
2023-02-12T03:58:14.022Z,-37
2023-02-12T03:59:20.287Z,-38
2023-02-12T04:00:26.563Z,-40
2023-02-12T04:01:32.831Z,-38
2023-02-12T04:02:39.101Z,-38
2023-02-12T04:03:45.371Z,-40
2023-02-12T04:04:50.665Z,-38
2023-02-12T04:05:56.940Z,-38
2023-02-12T04:07:03.208Z,-40
2023-02-12T04:08:09.478Z,-39
2023-02-12T04:09:15.762Z,-38
2023-02-12T04:10:22.021Z,-37
2023-02-12T04:11:28.323Z,-37
2023-02-12T04:12:33.616Z,-38
2023-02-12T04:13:38.875Z,-38
2023-02-12T04:14:44.183Z,-39
2023-02-12T04:15:49.487Z,-38
2023-02-12T04:16:55.741Z,-39
2023-02-12T04:18:02.013Z,-38
2023-02-12T04:19:08.284Z,-39
2023-02-12T04:20:14.552Z,-38
2023-02-12T04:21:20.828Z,-38
2023-02-12T04:22:27.102Z,-39
2023-02-12T04:23:33.367Z,-38
2023-02-12T04:24:39.669Z,-38
2023-02-12T04:25:45.906Z,-39
2023-02-12T04:26:52.188Z,-39
2023-02-12T04:27:58.465Z,-40
2023-02-12T04:29:04.733Z,-38
2023-02-12T04:30:10.022Z,-38
2023-02-12T04:31:16.292Z,-38
2023-02-12T04:32:22.575Z,-38
2023-02-12T04:33:28.833Z,-39
2023-02-12T04:34:35.119Z,-39
2023-02-12T04:35:41.382Z,-39
2023-02-12T04:36:47.666Z,-39
2023-02-12T04:37:52.965Z,-37
2023-02-12T04:38:58.240Z,-39
2023-02-12T04:40:03.546Z,-39
2023-02-12T04:41:08.837Z,-37
2023-02-12T04:42:15.106Z,-38
2023-02-12T04:43:21.375Z,-38
2023-02-12T04:44:27.655Z,-38
2023-02-12T04:45:33.925Z,-39
2023-02-12T04:46:40.195Z,-40
2023-02-12T04:47:46.466Z,-38
2023-02-12T04:48:52.737Z,-38
2023-02-12T04:49:59.026Z,-38
2023-02-12T04:51:05.291Z,-38
2023-02-12T04:52:11.553Z,-38
2023-02-12T04:53:17.845Z,-39
2023-02-12T04:54:24.109Z,-39
2023-02-12T04:55:29.395Z,-38
2023-02-12T04:56:35.667Z,-38
2023-02-12T04:57:41.934Z,-39
2023-02-12T04:58:48.223Z,-40
2023-02-12T04:59:54.478Z,-39
2023-02-12T05:01:00.754Z,-38
2023-02-12T05:02:07.022Z,-39
2023-02-12T05:03:12.328Z,-38
2023-02-12T05:04:17.617Z,-37
2023-02-12T05:05:22.910Z,-40
2023-02-12T05:06:28.201Z,-39
2023-02-12T05:07:34.472Z,-38
2023-02-12T05:08:40.731Z,-38
2023-02-12T05:09:47.015Z,-39
2023-02-12T05:10:53.291Z,-39
2023-02-12T05:11:59.576Z,-38
2023-02-12T05:13:05.829Z,-38
2023-02-12T05:14:12.110Z,-40
2023-02-12T05:15:17.408Z,-38
2023-02-12T05:16:23.676Z,-39
2023-02-12T05:17:29.941Z,-38
2023-02-12T05:18:36.225Z,-38
2023-02-12T05:19:42.488Z,-38
2023-02-12T05:20:48.760Z,-38
2023-02-12T05:21:55.033Z,-38
2023-02-12T05:23:01.306Z,-38
2023-02-12T05:24:07.581Z,-38
2023-02-12T05:25:13.844Z,-38
2023-02-12T05:26:20.134Z,-39
2023-02-12T05:27:26.389Z,-38
2023-02-12T05:28:31.691Z,-38
2023-02-12T05:29:36.975Z,-39
2023-02-12T05:30:42.281Z,-37
2023-02-12T05:31:47.600Z,-38
2023-02-12T05:32:53.846Z,-37
2023-02-12T05:34:00.105Z,-38
2023-02-12T05:35:06.386Z,-38
2023-02-12T05:36:12.658Z,-38
2023-02-12T05:37:18.929Z,-37
2023-02-12T05:38:25.200Z,-37
2023-02-12T05:39:31.476Z,-37
2023-02-12T05:40:37.744Z,-38
2023-02-12T05:41:44.013Z,-38
2023-02-12T05:42:50.299Z,-39
2023-02-12T05:43:56.567Z,-39
2023-02-12T05:45:02.841Z,-37
2023-02-12T05:46:08.118Z,-39
2023-02-12T05:47:14.395Z,-39
2023-02-12T05:48:20.671Z,-39
2023-02-12T05:49:26.935Z,-40
2023-02-12T05:50:33.212Z,-38
2023-02-12T05:51:39.474Z,-37
2023-02-12T05:52:45.749Z,-38
2023-02-12T05:53:51.059Z,-39
2023-02-12T05:54:56.340Z,-38
2023-02-12T05:56:01.640Z,-38
2023-02-12T05:57:06.950Z,-38
2023-02-12T05:58:13.198Z,-39
2023-02-12T05:59:19.470Z,-37
2023-02-12T06:00:25.736Z,-38
2023-02-12T06:01:32.015Z,-40
2023-02-12T06:02:38.274Z,-39
2023-02-12T06:03:44.559Z,-40
2023-02-12T06:04:50.886Z,-38
2023-02-12T06:05:57.113Z,-38
2023-02-12T06:07:03.375Z,-39
2023-02-12T06:08:09.643Z,-38
2023-02-12T06:09:15.914Z,-39
2023-02-12T06:10:22.189Z,-40
2023-02-12T06:11:27.480Z,-39
2023-02-12T06:12:33.750Z,-40
2023-02-12T06:13:40.025Z,-40
2023-02-12T06:14:46.283Z,-39
2023-02-12T06:15:52.566Z,-39
2023-02-12T06:16:58.832Z,-39
2023-02-12T06:18:05.114Z,-39
2023-02-12T06:19:10.412Z,-39
2023-02-12T06:20:15.709Z,-40
2023-02-12T06:21:21.965Z,-40
2023-02-12T06:22:28.237Z,-39
2023-02-12T06:23:33.541Z,-39
2023-02-12T06:24:38.828Z,-36
2023-02-12T06:25:45.155Z,-38
2023-02-12T06:26:51.370Z,-39
2023-02-12T06:27:57.644Z,-39
2023-02-12T06:29:03.954Z,-37
2023-02-12T06:30:10.191Z,-38
2023-02-12T06:31:16.459Z,-39
2023-02-12T06:32:22.732Z,-39
2023-02-12T06:33:29.008Z,-37
2023-02-12T06:34:35.303Z,-39
2023-02-12T06:35:41.554Z,-39
2023-02-12T06:36:47.829Z,-40
2023-02-12T06:37:54.167Z,-38
2023-02-12T06:38:59.384Z,-39
2023-02-12T06:40:05.661Z,-39
2023-02-12T06:41:11.928Z,-37
2023-02-12T06:42:18.203Z,-38
2023-02-12T06:43:24.485Z,-38
2023-02-12T06:44:30.747Z,-37
2023-02-12T06:45:37.018Z,-37
2023-02-12T06:46:42.334Z,-38
2023-02-12T06:47:47.636Z,-37
2023-02-12T06:48:53.887Z,-38
2023-02-12T06:50:00.152Z,-38
2023-02-12T06:51:06.427Z,-37
2023-02-12T06:52:12.696Z,-39
2023-02-12T06:53:18.964Z,-37
2023-02-12T06:54:25.240Z,-39
2023-02-12T06:55:31.525Z,-38
2023-02-12T06:56:37.780Z,-38
2023-02-12T06:57:44.052Z,-37
2023-02-12T06:58:50.332Z,-40
2023-02-12T06:59:56.601Z,-37
2023-02-12T07:01:02.885Z,-38
2023-02-12T07:02:08.196Z,-36
2023-02-12T07:03:14.431Z,-36
2023-02-12T07:04:20.702Z,-38
2023-02-12T07:05:26.976Z,-39
2023-02-12T07:06:33.249Z,-37
2023-02-12T07:07:39.523Z,-37
2023-02-12T07:08:45.860Z,-37
2023-02-12T07:09:51.089Z,-37
2023-02-12T07:10:56.379Z,-38
2023-02-12T07:12:02.665Z,-38
2023-02-12T07:13:07.951Z,-38
2023-02-12T07:14:13.238Z,-38
2023-02-12T07:15:18.536Z,-39
2023-02-12T07:16:23.853Z,-37
2023-02-12T07:17:30.113Z,-37
2023-02-12T07:18:36.366Z,-37
2023-02-12T07:19:42.643Z,-39
2023-02-12T07:20:48.915Z,-40
2023-02-12T07:21:55.186Z,-38
2023-02-12T07:23:01.459Z,-38
2023-02-12T07:24:07.724Z,-37
2023-02-12T07:25:14.028Z,-38
2023-02-12T07:26:20.272Z,-37
2023-02-12T07:27:26.554Z,-39
2023-02-12T07:28:32.815Z,-37
2023-02-12T07:29:39.098Z,-37
2023-02-12T07:30:44.385Z,-37
2023-02-12T07:31:50.658Z,-38
2023-02-12T07:32:56.930Z,-39
2023-02-12T07:34:03.200Z,-37
2023-02-12T07:35:09.474Z,-37
2023-02-12T07:36:15.807Z,-40
2023-02-12T07:37:22.016Z,-38
2023-02-12T07:38:27.326Z,-37
2023-02-12T07:39:32.724Z,-37
2023-02-12T07:40:38.880Z,-37
2023-02-12T07:41:44.180Z,-38
2023-02-12T07:42:49.488Z,-37
2023-02-12T07:43:55.733Z,-37
2023-02-12T07:45:02.022Z,-38
2023-02-12T07:46:08.295Z,-38
2023-02-12T07:47:14.624Z,-37
2023-02-12T07:48:20.828Z,-38
2023-02-12T07:49:27.091Z,-37
2023-02-12T07:50:33.377Z,-37
2023-02-12T07:51:39.755Z,-37
2023-02-12T07:52:45.924Z,-37
2023-02-12T07:53:52.186Z,-38
2023-02-12T07:54:58.456Z,-38
2023-02-12T07:56:04.732Z,-37
2023-02-12T07:57:10.133Z,-38
2023-02-12T07:58:16.291Z,-37
2023-02-12T07:59:22.622Z,-36
2023-02-12T08:00:28.846Z,-37
2023-02-12T08:01:35.116Z,-37
2023-02-12T08:02:41.390Z,-37
2023-02-12T08:03:47.648Z,-36
2023-02-12T08:04:52.965Z,-36
2023-02-12T08:05:58.305Z,-35
2023-02-12T08:07:03.628Z,-37
2023-02-12T08:08:08.853Z,-37
2023-02-12T08:09:15.159Z,-37
2023-02-12T08:10:21.523Z,-37
2023-02-12T08:11:27.648Z,-37
2023-02-12T08:12:33.929Z,-37
2023-02-12T08:13:40.183Z,-37
2023-02-12T08:14:46.480Z,-37
2023-02-12T08:15:52.738Z,-37
2023-02-12T08:16:59.035Z,-37
2023-02-12T08:18:05.273Z,-37
2023-02-12T08:19:11.551Z,-37
2023-02-12T08:20:17.827Z,-36
2023-02-12T08:21:24.114Z,-37
2023-02-12T08:22:29.521Z,-36
2023-02-12T08:23:35.648Z,-36
2023-02-12T08:24:41.920Z,-35
2023-02-12T08:25:48.193Z,-37
2023-02-12T08:26:54.598Z,-35
2023-02-12T08:28:00.879Z,-36
2023-02-12T08:29:07.113Z,-35
2023-02-12T08:30:12.364Z,-35
2023-02-12T08:31:17.600Z,-36
2023-02-12T08:32:22.900Z,-35
2023-02-12T08:33:28.191Z,-36
2023-02-12T08:34:34.562Z,-36
2023-02-12T08:35:40.730Z,-35
2023-02-12T08:36:47.002Z,-36
2023-02-12T08:37:53.339Z,-36
2023-02-12T08:38:59.559Z,-37
2023-02-12T08:40:05.815Z,-37
2023-02-12T08:41:12.110Z,-36
2023-02-12T08:42:18.386Z,-35
2023-02-12T08:43:24.637Z,-36
2023-02-12T08:44:30.961Z,-34
2023-02-12T08:45:37.177Z,-35
2023-02-12T08:46:43.450Z,-35
2023-02-12T08:47:48.747Z,-34
2023-02-12T08:48:55.020Z,-34
2023-02-12T08:50:01.316Z,-34
2023-02-12T08:51:07.637Z,-34
2023-02-12T08:52:13.964Z,-34
2023-02-12T08:53:20.097Z,-34
2023-02-12T08:54:26.384Z,-34
2023-02-12T08:55:31.676Z,-35
2023-02-12T08:56:36.959Z,-35
2023-02-12T08:57:42.266Z,-34
2023-02-12T08:58:47.551Z,-35
2023-02-12T08:59:53.886Z,-34
2023-02-12T09:01:00.085Z,-34
2023-02-12T09:02:06.351Z,-35
2023-02-12T09:03:12.638Z,-35
2023-02-12T09:04:18.953Z,-37
2023-02-12T09:05:25.204Z,-34
2023-02-12T09:06:31.485Z,-36
2023-02-12T09:07:37.756Z,-35
2023-02-12T09:08:44.045Z,-34
2023-02-12T09:09:50.298Z,-37
2023-02-12T09:10:56.538Z,-34
2023-02-12T09:12:02.865Z,-34
2023-02-12T09:13:08.089Z,-35
2023-02-12T09:14:14.370Z,-34
2023-02-12T09:15:20.642Z,-34
2023-02-12T09:16:26.919Z,-34
2023-02-12T09:17:33.229Z,-34
2023-02-12T09:18:39.455Z,-34
2023-02-12T09:19:45.854Z,-34
2023-02-12T09:20:51.058Z,-34
2023-02-12T09:21:56.339Z,-34
2023-02-12T09:23:01.660Z,-34
2023-02-12T09:24:06.914Z,-34
2023-02-12T09:25:13.178Z,-34
2023-02-12T09:26:19.454Z,-34
2023-02-12T09:27:25.721Z,-34
2023-02-12T09:28:32.003Z,-33
2023-02-12T09:29:38.268Z,-34
2023-02-12T09:30:44.540Z,-33
2023-02-12T09:31:50.834Z,-33
2023-02-12T09:32:57.084Z,-32
2023-02-12T09:34:03.361Z,-33
2023-02-12T09:35:09.637Z,-33
2023-02-12T09:36:15.916Z,-33
2023-02-12T09:37:22.184Z,-33
2023-02-12T09:38:27.529Z,-32
2023-02-12T09:39:33.735Z,-33
2023-02-12T09:40:40.006Z,-33
2023-02-12T09:41:46.279Z,-33
2023-02-12T09:42:52.577Z,-33
2023-02-12T09:43:58.821Z,-34
2023-02-12T09:45:05.097Z,-32
2023-02-12T09:46:10.404Z,-34
2023-02-12T09:47:15.681Z,-34
2023-02-12T09:48:21.076Z,-31
2023-02-12T09:49:26.316Z,-34
2023-02-12T09:50:32.541Z,-32
2023-02-12T09:51:38.832Z,-33
2023-02-12T09:52:45.090Z,-33
2023-02-12T09:53:51.362Z,-33
2023-02-12T09:54:57.650Z,-34
2023-02-12T09:56:03.919Z,-33
2023-02-12T09:57:10.183Z,-32
2023-02-12T09:58:16.449Z,-33
2023-02-12T09:59:22.728Z,-33
2023-02-12T10:00:28.992Z,-32
2023-02-12T10:01:35.285Z,-33
2023-02-12T10:02:41.567Z,-32
2023-02-12T10:03:46.831Z,-33
2023-02-12T10:04:53.103Z,-32
2023-02-12T10:05:59.377Z,-31
2023-02-12T10:07:05.655Z,-33
2023-02-12T10:08:11.915Z,-31
2023-02-12T10:09:18.189Z,-32
2023-02-12T10:10:24.466Z,-32
2023-02-12T10:11:29.787Z,-33
2023-02-12T10:12:35.040Z,-31
2023-02-12T10:13:41.319Z,-34
2023-02-12T10:14:47.589Z,-32
2023-02-12T10:15:52.988Z,-31
2023-02-12T10:16:58.217Z,-33
2023-02-12T10:18:04.452Z,-34
2023-02-12T10:19:10.730Z,-32
2023-02-12T10:20:17.007Z,-33
2023-02-12T10:21:23.439Z,-32
2023-02-12T10:22:29.682Z,-32
2023-02-12T10:23:35.924Z,-33
2023-02-12T10:24:42.085Z,-33
2023-02-12T10:25:48.387Z,-33
2023-02-12T10:26:54.732Z,-32
2023-02-12T10:28:01.081Z,-33
2023-02-12T10:29:07.284Z,-33
2023-02-12T10:30:13.678Z,-32
2023-02-12T10:31:18.912Z,-33
2023-02-12T10:32:25.149Z,-33
2023-02-12T10:33:31.352Z,-33
2023-02-12T10:34:37.695Z,-33
2023-02-12T10:35:43.979Z,-34
2023-02-12T10:36:50.210Z,-33
2023-02-12T10:37:56.525Z,-32
2023-02-12T10:39:01.830Z,-33
2023-02-12T10:40:07.058Z,-33
2023-02-12T10:41:12.343Z,-32
2023-02-12T10:42:17.570Z,-32
2023-02-12T10:43:23.981Z,-32
2023-02-12T10:44:30.252Z,-33
2023-02-12T10:45:36.427Z,-32
2023-02-12T10:46:42.775Z,-32
2023-02-12T10:47:49.071Z,-33
2023-02-12T10:48:55.358Z,-33
2023-02-12T10:50:01.608Z,-33
2023-02-12T10:51:07.950Z,-32
2023-02-12T10:52:14.141Z,-32
2023-02-12T10:53:20.397Z,-33
2023-02-12T10:54:26.685Z,-33
2023-02-12T10:55:32.891Z,-33
2023-02-12T10:56:38.254Z,-32
2023-02-12T10:57:44.354Z,-33
2023-02-12T10:58:50.767Z,-34
2023-02-12T10:59:57.074Z,-33
2023-02-12T11:01:03.244Z,-32
2023-02-12T11:02:09.585Z,-33
2023-02-12T11:03:15.905Z,-32
2023-02-12T11:04:21.166Z,-32
2023-02-12T11:05:26.500Z,-33
2023-02-12T11:06:31.596Z,-34
2023-02-12T11:07:36.957Z,-32
2023-02-12T11:08:43.203Z,-32
2023-02-12T11:09:49.463Z,-33
2023-02-12T11:10:55.717Z,-33
2023-02-12T11:12:02.102Z,-33
2023-02-12T11:13:08.272Z,-33
2023-02-12T11:14:14.706Z,-33
2023-02-12T11:15:20.928Z,-33
2023-02-12T11:16:27.106Z,-33
2023-02-12T11:17:33.398Z,-33
2023-02-12T11:18:39.694Z,-32
2023-02-12T11:19:46.000Z,-32
2023-02-12T11:20:52.166Z,-31
2023-02-12T11:21:57.532Z,-33
2023-02-12T11:23:03.827Z,-33
2023-02-12T11:24:10.132Z,-33
2023-02-12T11:25:16.462Z,-34
2023-02-12T11:26:22.530Z,-33
2023-02-12T11:27:29.023Z,-33
2023-02-12T11:28:35.250Z,-33
2023-02-12T11:29:40.569Z,-32
2023-02-12T11:30:45.670Z,-32
2023-02-12T11:31:51.045Z,-32
2023-02-12T11:32:56.426Z,-32
2023-02-12T11:34:02.687Z,-33
2023-02-12T11:35:08.798Z,-30
2023-02-12T11:36:15.244Z,-34
2023-02-12T11:37:21.452Z,-34
2023-02-12T11:38:27.605Z,-34
2023-02-12T11:39:34.077Z,-34
2023-02-12T11:40:40.272Z,-34
2023-02-12T11:41:46.628Z,-33
2023-02-12T11:42:52.860Z,-33
2023-02-12T11:43:58.971Z,-34
2023-02-12T11:45:05.407Z,-34
2023-02-12T11:46:11.700Z,-34
2023-02-12T11:47:16.808Z,-34
2023-02-12T11:48:23.082Z,-34
2023-02-12T11:49:29.359Z,-34
2023-02-12T11:50:35.625Z,-34
2023-02-12T11:51:41.949Z,-33
2023-02-12T11:52:48.164Z,-37
2023-02-12T11:53:54.440Z,-33
2023-02-12T11:54:59.739Z,-34
2023-02-12T11:56:05.031Z,-33
2023-02-12T11:57:11.298Z,-34
2023-02-12T11:58:17.564Z,-34
2023-02-12T11:59:23.854Z,-34
2023-02-12T12:00:30.116Z,-34
2023-02-12T12:01:36.474Z,-33
2023-02-12T12:02:42.671Z,-34
2023-02-12T12:03:48.961Z,-34
2023-02-12T12:04:55.268Z,-34
2023-02-12T12:06:01.486Z,-34
2023-02-12T12:07:07.747Z,-34
2023-02-12T12:08:14.135Z,-34
2023-02-12T12:09:20.326Z,-34
2023-02-12T12:10:26.643Z,-34
2023-02-12T12:11:31.903Z,-34
2023-02-12T12:12:38.117Z,-34
2023-02-12T12:13:44.401Z,-34
2023-02-12T12:14:50.661Z,-35
2023-02-12T12:15:56.965Z,-35
2023-02-12T12:17:03.245Z,-34
2023-02-12T12:18:09.584Z,-34
2023-02-12T12:19:14.850Z,-34
2023-02-12T12:20:21.050Z,-34
2023-02-12T12:21:26.460Z,-34
2023-02-12T12:22:31.698Z,-35
2023-02-12T12:23:37.934Z,-34
2023-02-12T12:24:43.242Z,-34
2023-02-12T12:25:48.509Z,-34
2023-02-12T12:26:54.773Z,-34
2023-02-12T12:28:01.100Z,-34
2023-02-12T12:29:07.313Z,-34
2023-02-12T12:30:13.723Z,-34
2023-02-12T12:31:19.857Z,-35
2023-02-12T12:32:26.210Z,-34
2023-02-12T12:33:32.418Z,-34
2023-02-12T12:34:38.831Z,-34
2023-02-12T12:35:45.017Z,-34
2023-02-12T12:36:51.327Z,-33
2023-02-12T12:37:56.575Z,-35
2023-02-12T12:39:02.792Z,-36
2023-02-12T12:40:09.254Z,-34
2023-02-12T12:41:15.330Z,-35
2023-02-12T12:42:21.785Z,-34
2023-02-12T12:43:28.047Z,-34
2023-02-12T12:44:34.238Z,-34
2023-02-12T12:45:40.420Z,-34
2023-02-12T12:46:46.896Z,-35
2023-02-12T12:47:53.067Z,-34
2023-02-12T12:48:58.290Z,-34
2023-02-12T12:50:03.556Z,-35
2023-02-12T12:51:08.997Z,-34
2023-02-12T12:52:14.279Z,-34
2023-02-12T12:53:20.540Z,-35
2023-02-12T12:54:26.676Z,-34
2023-02-12T12:55:32.957Z,-35
2023-02-12T12:56:39.313Z,-35
2023-02-12T12:58:51.941Z,-34
2023-02-12T12:59:58.252Z,-34
2023-02-12T13:01:04.495Z,-34
2023-02-12T13:02:10.684Z,-35
2023-02-12T13:03:17.003Z,-35
2023-02-12T13:04:23.141Z,-34
2023-02-12T13:05:29.633Z,-33
2023-02-12T13:06:34.692Z,-34
2023-02-12T13:07:40.968Z,-34
2023-02-12T13:08:47.352Z,-34
2023-02-12T13:09:53.505Z,-35
2023-02-12T13:10:59.790Z,-34
2023-02-12T13:12:06.059Z,-34
2023-02-12T13:13:12.334Z,-34
2023-02-12T13:14:18.602Z,-34
2023-02-12T13:15:23.898Z,-35
2023-02-12T13:16:29.195Z,-33
2023-02-12T13:17:35.467Z,-34
2023-02-12T13:18:40.760Z,-33
2023-02-12T13:19:46.089Z,-35
2023-02-12T13:20:52.320Z,-34
2023-02-12T13:21:58.604Z,-33
2023-02-12T13:23:04.867Z,-33
2023-02-12T13:24:11.194Z,-32
2023-02-12T13:25:17.412Z,-33
2023-02-12T13:26:23.680Z,-34
2023-02-12T13:27:29.990Z,-33
2023-02-12T13:28:36.259Z,-32
2023-02-12T13:29:42.508Z,-33
2023-02-12T13:30:48.790Z,-34
2023-02-12T13:31:55.046Z,-34
2023-02-12T13:33:01.399Z,-34
2023-02-12T13:34:06.641Z,-34
2023-02-12T13:35:12.900Z,-33
2023-02-12T13:36:19.169Z,-34
2023-02-12T13:37:25.488Z,-34
2023-02-12T13:38:31.688Z,-34
2023-02-12T13:39:37.971Z,-34
2023-02-12T13:40:44.235Z,-34
2023-02-12T13:41:49.539Z,-34
2023-02-12T13:42:54.832Z,-32
2023-02-12T13:44:00.238Z,-34
2023-02-12T13:45:05.437Z,-34
2023-02-12T13:46:11.768Z,-33
2023-02-12T13:47:17.953Z,-34
2023-02-12T13:48:24.216Z,-34
2023-02-12T13:49:30.690Z,-32
2023-02-12T13:50:36.825Z,-32
2023-02-12T13:51:43.204Z,-32
2023-02-12T13:52:49.323Z,-34
2023-02-12T13:53:55.742Z,-32
2023-02-12T13:55:01.925Z,-32
2023-02-12T13:56:08.128Z,-33
2023-02-12T13:57:14.401Z,-31
2023-02-12T13:58:20.676Z,-32
2023-02-12T13:59:26.015Z,-33
2023-02-12T14:00:32.235Z,-33
2023-02-12T14:01:38.532Z,-33
2023-02-12T14:02:44.782Z,-33
2023-02-12T14:03:51.049Z,-34
2023-02-12T14:04:57.349Z,-34
2023-02-12T14:06:03.614Z,-34
2023-02-12T14:07:08.891Z,-32
2023-02-12T14:08:14.278Z,-33
2023-02-12T14:09:19.544Z,-32
2023-02-12T14:10:24.818Z,-32
2023-02-12T14:11:31.121Z,-33
2023-02-12T14:12:37.415Z,-33
2023-02-12T14:13:43.591Z,-34
2023-02-12T14:14:49.919Z,-31
2023-02-12T14:15:56.266Z,-32
2023-02-12T14:17:02.547Z,-32
2023-02-12T14:18:08.736Z,-33
2023-02-12T14:19:15.137Z,-32
2023-02-12T14:20:21.253Z,-32
2023-02-12T14:21:27.592Z,-34
2023-02-12T14:22:33.758Z,-32
2023-02-12T14:23:40.166Z,-34
2023-02-12T14:24:45.527Z,-34
2023-02-12T14:25:51.586Z,-34
2023-02-12T14:26:58.056Z,-32
2023-02-12T14:28:04.285Z,-33
2023-02-12T14:29:10.455Z,-32
2023-02-12T14:30:16.681Z,-33
2023-02-12T14:31:22.961Z,-32
2023-02-12T14:32:28.254Z,-33
2023-02-12T14:33:33.535Z,-34
2023-02-12T14:34:39.814Z,-32
2023-02-12T14:35:45.104Z,-33
2023-02-12T14:36:50.417Z,-32
2023-02-12T14:37:56.669Z,-32
2023-02-12T14:39:02.949Z,-32
2023-02-12T14:40:09.220Z,-33
2023-02-12T14:41:15.501Z,-32
2023-02-12T14:42:21.766Z,-33
2023-02-12T14:43:28.098Z,-32
2023-02-12T14:44:34.336Z,-34
2023-02-12T14:45:40.574Z,-32
2023-02-12T14:46:46.842Z,-32
2023-02-12T14:47:53.114Z,-32
2023-02-12T14:48:59.452Z,-33
2023-02-12T14:50:05.748Z,-33
2023-02-12T14:51:10.945Z,-32
2023-02-12T14:52:17.215Z,-33
2023-02-12T14:53:23.487Z,-32
2023-02-12T14:54:29.780Z,-34
2023-02-12T14:55:36.142Z,-32
2023-02-12T14:56:42.372Z,-32
2023-02-12T14:57:48.633Z,-34
2023-02-12T14:58:53.947Z,-32
2023-02-12T15:00:00.263Z,-32
2023-02-12T15:01:05.451Z,-34
2023-02-12T15:02:10.807Z,-31
2023-02-12T15:03:17.000Z,-33
2023-02-12T15:04:23.284Z,-33
2023-02-12T15:05:29.558Z,-34
2023-02-12T15:06:35.860Z,-33
2023-02-12T15:07:42.103Z,-32
2023-02-12T15:08:49.167Z,-34
2023-02-12T15:09:54.654Z,-34
2023-02-12T15:11:01.068Z,-33